Time;durP1;ratioP1;P1;durP2;ratioP2;P2;SDS_P1;SDS_P2;PMS_P1;PMS_P2;Temp;Humidity;BMP_temperature;BMP_pressure;BME280_temperature;BME280_humidity;BME280_pressure;Samples;Min_cycle;Max_cycle;Signal;HPM_P1;HPM_P2
2021/08/06 00:02:28;;;;;;;3.30;1.45;;;14.10;99.90;;;;;;4920795;29;20516;-90
2021/08/06 00:04:56;;;;;;;1.40;1.10;;;14.10;99.90;;;;;;4920545;29;20055;-90
2021/08/06 00:07:24;;;;;;;1.42;1.33;;;14.20;99.90;;;;;;4952786;28;20043;-89
2021/08/06 00:09:55;;;;;;;6.68;1.48;;;14.20;99.90;;;;;;4953526;29;20048;-89
2021/08/06 00:12:23;;;;;;;1.70;1.10;;;14.10;99.90;;;;;;4950950;29;20524;-88
2021/08/06 00:14:53;;;;;;;1.55;1.20;;;14.10;99.90;;;;;;4952829;28;20059;-88
2021/08/06 00:17:21;;;;;;;2.15;1.05;;;14.10;99.90;;;;;;4930577;28;20051;-88
2021/08/06 00:19:49;;;;;;;1.00;1.00;;;14.10;99.90;;;;;;4970206;28;20035;-89
2021/08/06 00:22:17;;;;;;;1.80;1.27;;;14.20;99.90;;;;;;4971052;28;20058;-89
2021/08/06 00:24:45;;;;;;;1.20;1.13;;;14.30;99.90;;;;;;4970911;28;20523;-88
2021/08/06 00:27:13;;;;;;;1.40;1.30;;;14.30;99.90;;;;;;4969403;28;20055;-87
2021/08/06 00:29:41;;;;;;;1.10;1.00;;;14.40;99.90;;;;;;4954946;28;20428;-89
2021/08/06 00:32:09;;;;;;;4.15;2.53;;;14.50;99.90;;;;;;4954774;28;20039;-89
2021/08/06 00:34:38;;;;;;;1.50;1.20;;;14.40;99.90;;;;;;4971427;28;20074;-90
2021/08/06 00:37:06;;;;;;;1.25;1.15;;;14.40;99.90;;;;;;4938212;28;20485;-90
2021/08/06 00:39:38;;;;;;;1.20;1.13;;;14.30;99.90;;;;;;4954627;28;20046;-90
2021/08/06 00:42:09;;;;;;;1.45;1.02;;;14.30;99.90;;;;;;4957691;28;20054;-90
2021/08/06 00:44:37;;;;;;;1.13;1.02;;;14.30;99.90;;;;;;4935378;29;20042;-90
2021/08/06 00:47:06;;;;;;;2.40;1.20;;;14.30;99.90;;;;;;4920081;28;20043;-91
2021/08/06 00:49:38;;;;;;;0.88;0.75;;;14.20;99.90;;;;;;4917611;29;20047;-90
2021/08/06 00:52:10;;;;;;;1.52;1.40;;;14.20;99.90;;;;;;4901370;29;20044;-91
2021/08/06 00:54:41;;;;;;;1.63;1.10;;;14.20;99.90;;;;;;4917134;29;20052;-91
2021/08/06 00:57:16;;;;;;;1.33;1.23;;;14.20;99.90;;;;;;4946519;29;20052;-91
2021/08/06 00:59:50;;;;;;;1.05;1.00;;;14.10;99.90;;;;;;4902253;29;20071;-91
2021/08/06 01:02:25;;;;;;;1.38;1.13;;;14.10;99.90;;;;;;4917632;29;20051;-89
2021/08/06 01:05:15;;;;;;;1.42;1.33;;;14.10;99.90;;;;;;4916340;29;20497;-91
2021/08/06 01:08:17;;;;;;;1.48;1.17;;;14.00;99.90;;;;;;4917231;29;20040;-91
2021/08/06 01:10:58;;;;;;;1.50;1.40;;;14.00;99.90;;;;;;4918228;28;20048;-91
2021/08/06 01:13:32;;;;;;;2.25;1.38;;;14.00;99.90;;;;;;4936053;29;20055;-90
2021/08/06 01:16:05;;;;;;;1.33;1.23;;;14.00;99.90;;;;;;4950781;28;20039;-90
2021/08/06 01:18:45;;;;;;;1.85;0.90;;;14.00;99.90;;;;;;4935194;28;20043;-92
2021/08/06 01:21:17;;;;;;;1.65;1.35;;;14.00;99.90;;;;;;4937721;28;20055;-89
2021/08/06 01:23:46;;;;;;;1.60;1.30;;;14.00;99.90;;;;;;4954450;28;20046;-90
2021/08/06 01:26:19;;;;;;;1.38;1.27;;;14.00;99.90;;;;;;4970090;28;20054;-89
2021/08/06 01:28:57;;;;;;;1.77;1.67;;;13.90;99.90;;;;;;4970743;28;20062;-91
2021/08/06 01:31:29;;;;;;;1.73;1.33;;;13.90;99.90;;;;;;4957885;28;20035;-90
2021/08/06 01:34:16;;;;;;;2.60;1.27;;;13.90;99.90;;;;;;4945300;28;20044;-90
2021/08/06 01:36:44;;;;;;;1.48;1.38;;;13.90;99.90;;;;;;4935108;29;20052;-89
2021/08/06 01:39:19;;;;;;;1.45;1.30;;;13.80;99.90;;;;;;4951689;28;20050;-90
2021/08/06 01:42:00;;;;;;;2.03;1.48;;;13.80;99.90;;;;;;4938654;29;20062;-89
2021/08/06 01:44:53;;;;;;;3.20;1.30;;;13.80;99.90;;;;;;4923081;29;20510;-84
2021/08/06 01:47:33;;;;;;;17.15;1.77;;;13.80;99.90;;;;;;4937605;28;20564;-84
2021/08/06 01:50:13;;;;;;;1.25;1.17;;;13.70;99.90;;;;;;4938437;29;20066;-84
2021/08/06 01:52:54;;;;;;;1.42;1.10;;;13.70;99.90;;;;;;4922615;29;20409;-84
2021/08/06 01:55:22;;;;;;;6.20;2.38;;;13.60;99.90;;;;;;4934412;29;20055;-84
2021/08/06 01:57:54;;;;;;;1.13;0.85;;;13.60;99.90;;;;;;4934710;29;20055;-84
2021/08/06 02:00:31;;;;;;;15.90;1.63;;;13.50;99.90;;;;;;4934391;28;20043;-83
2021/08/06 02:04:09;;;;;;;1.00;0.95;;;13.40;99.90;;;;;;4934811;28;20040;-84
2021/08/06 02:06:38;;;;;;;1.45;1.10;;;13.30;99.90;;;;;;4917402;29;20390;-84
2021/08/06 02:09:18;;;;;;;2.53;1.10;;;13.30;99.90;;;;;;4915453;29;20044;-84
2021/08/06 02:11:48;;;;;;;2.47;1.30;;;13.20;99.90;;;;;;4924053;29;20048;-83
2021/08/06 02:14:23;;;;;;;1.45;1.20;;;13.20;99.90;;;;;;4934723;29;20047;-84
2021/08/06 02:16:53;;;;;;;1.25;1.10;;;13.10;99.90;;;;;;4935768;28;20569;-84
2021/08/06 02:19:29;;;;;;;0.88;0.88;;;13.10;99.90;;;;;;4934555;28;20052;-83
2021/08/06 02:22:08;;;;;;;1.42;0.93;;;13.00;99.90;;;;;;4934594;29;20051;-84
2021/08/06 02:24:41;;;;;;;2.70;1.67;;;13.00;99.90;;;;;;4934058;29;20044;-83
2021/08/06 02:27:15;;;;;;;1.13;1.10;;;12.90;99.90;;;;;;4933717;28;20058;-84
2021/08/06 02:29:46;;;;;;;1.48;1.23;;;13.00;99.90;;;;;;4934695;29;20060;-84
2021/08/06 02:32:19;;;;;;;2.50;0.98;;;12.90;99.90;;;;;;4934593;29;20047;-84
2021/08/06 02:34:50;;;;;;;113.57;34.72;;;13.00;99.90;;;;;;4934218;28;20058;-83
2021/08/06 02:37:18;;;;;;;4.93;1.42;;;12.90;99.90;;;;;;4934240;29;20667;-84
2021/08/06 02:39:46;;;;;;;2.47;2.03;;;12.90;99.90;;;;;;4935129;28;20044;-84
2021/08/06 02:42:14;;;;;;;1.05;0.93;;;12.90;99.90;;;;;;4934030;29;20043;-83
2021/08/06 02:44:42;;;;;;;1.15;1.05;;;12.80;99.90;;;;;;4936822;28;20044;-86
2021/08/06 02:47:10;;;;;;;0.95;0.95;;;12.70;99.90;;;;;;4936037;28;20075;-85
2021/08/06 02:49:39;;;;;;;1.38;1.17;;;12.60;99.90;;;;;;4931346;29;20052;-85
2021/08/06 02:52:08;;;;;;;2.78;1.60;;;12.60;99.90;;;;;;4915105;29;20052;-85
2021/08/06 02:54:38;;;;;;;1.85;1.65;;;12.50;99.90;;;;;;4915370;29;20067;-86
2021/08/06 02:57:06;;;;;;;3.35;1.48;;;12.50;99.90;;;;;;4930155;29;20044;-85
2021/08/06 02:59:34;;;;;;;0.95;0.95;;;12.50;99.90;;;;;;4914812;29;20059;-85
2021/08/06 03:02:02;;;;;;;1.08;0.95;;;12.50;99.90;;;;;;4914969;29;20445;-86
2021/08/06 03:04:30;;;;;;;2.30;1.25;;;12.50;99.90;;;;;;4899107;29;20079;-85
2021/08/06 03:07:00;;;;;;;1.63;1.23;;;12.30;99.90;;;;;;4898767;28;20056;-86
2021/08/06 03:09:28;;;;;;;2.25;0.90;;;12.20;99.90;;;;;;4915408;29;20052;-85
2021/08/06 03:11:57;;;;;;;1.75;1.00;;;12.20;99.90;;;;;;4917848;29;20051;-85
2021/08/06 03:14:32;;;;;;;3.47;1.08;;;12.20;99.90;;;;;;4934186;29;20051;-85
2021/08/06 03:17:00;;;;;;;1.63;1.10;;;12.10;99.90;;;;;;4917449;29;20050;-85
2021/08/06 03:19:28;;;;;;;0.93;0.80;;;12.10;99.90;;;;;;4933446;28;20405;-86
2021/08/06 03:21:57;;;;;;;2.97;1.38;;;12.00;99.90;;;;;;4933365;29;20529;-85
2021/08/06 03:24:25;;;;;;;1.55;1.45;;;12.00;99.90;;;;;;4917878;29;20075;-85
2021/08/06 03:26:54;;;;;;;6.70;1.90;;;12.00;99.90;;;;;;4932962;28;20044;-85
2021/08/06 03:29:24;;;;;;;2.78;1.70;;;12.00;99.90;;;;;;4917737;29;20402;-85
2021/08/06 03:31:51;;;;;;;7.40;1.63;;;12.00;99.90;;;;;;4917529;29;20044;-85
2021/08/06 03:34:20;;;;;;;0.93;0.93;;;11.90;99.90;;;;;;4917984;29;20051;-85
2021/08/06 03:36:47;;;;;;;4.65;1.30;;;11.90;99.90;;;;;;4917592;29;20040;-85
2021/08/06 03:39:16;;;;;;;1.55;1.30;;;11.90;99.90;;;;;;4917750;29;20048;-84
2021/08/06 03:41:46;;;;;;;1.25;1.15;;;11.90;99.90;;;;;;4932226;29;20055;-86
2021/08/06 03:44:14;;;;;;;1.85;1.60;;;11.90;99.90;;;;;;4902060;29;20040;-86
2021/08/06 03:46:42;;;;;;;1.48;1.38;;;11.90;99.90;;;;;;4901752;28;20044;-86
2021/08/06 03:49:10;;;;;;;1.98;1.52;;;11.90;99.90;;;;;;4917844;29;20754;-86
2021/08/06 03:51:38;;;;;;;0.88;0.82;;;11.90;99.90;;;;;;4932314;29;20055;-85
2021/08/06 03:54:07;;;;;;;3.70;1.48;;;11.90;99.90;;;;;;4933447;29;20055;-85
2021/08/06 03:56:37;;;;;;;1.90;1.75;;;11.90;99.90;;;;;;4916729;29;20044;-85
2021/08/06 03:59:05;;;;;;;1.42;1.33;;;12.00;99.90;;;;;;4917412;28;20504;-86
2021/08/06 04:01:35;;;;;;;3.53;1.33;;;12.00;99.90;;;;;;4917210;29;20044;-86
2021/08/06 04:04:03;;;;;;;2.30;2.03;;;12.10;99.90;;;;;;4933062;29;20091;-86
2021/08/06 04:06:32;;;;;;;1.52;1.35;;;12.10;99.90;;;;;;4917384;29;20405;-86
2021/08/06 04:09:00;;;;;;;2.22;2.03;;;12.10;99.90;;;;;;4916829;29;20052;-85
2021/08/06 04:11:29;;;;;;;2.35;1.13;;;12.20;99.90;;;;;;4912990;29;20041;-85
2021/08/06 04:13:57;;;;;;;1.60;1.23;;;12.00;99.90;;;;;;4914093;29;20053;-86
2021/08/06 04:16:25;;;;;;;1.67;0.93;;;12.00;99.90;;;;;;4916442;29;20035;-86
2021/08/06 04:18:53;;;;;;;5.35;1.85;;;12.00;99.90;;;;;;4916801;28;20512;-86
2021/08/06 04:21:21;;;;;;;1.10;1.00;;;11.90;99.90;;;;;;4916754;29;20052;-85
2021/08/06 04:23:49;;;;;;;1.50;1.27;;;11.90;99.90;;;;;;4941459;29;20043;-86
2021/08/06 04:26:17;;;;;;;1.58;1.48;;;12.00;99.90;;;;;;4920117;29;20066;-85
2021/08/06 04:28:45;;;;;;;1.85;1.13;;;12.00;99.90;;;;;;4919971;29;20043;-85
2021/08/06 04:31:13;;;;;;;1.27;1.17;;;12.00;99.90;;;;;;4935905;29;20040;-86
2021/08/06 04:33:40;;;;;;;1.52;1.33;;;12.20;99.90;;;;;;4952138;29;20055;-86
2021/08/06 04:36:08;;;;;;;1.98;1.88;;;12.20;99.90;;;;;;4951013;28;20696;-85
2021/08/06 04:38:36;;;;;;;1.38;1.20;;;12.30;99.90;;;;;;4920885;29;20059;-85
2021/08/06 04:41:05;;;;;;;3.38;1.50;;;12.40;99.90;;;;;;4935004;28;20497;-86
2021/08/06 04:43:36;;;;;;;1.73;1.63;;;12.40;99.90;;;;;;4936285;29;20055;-85
2021/08/06 04:46:04;;;;;;;2.28;2.08;;;12.50;99.90;;;;;;4951903;29;20051;-86
2021/08/06 04:48:32;;;;;;;2.08;1.88;;;12.50;99.90;;;;;;4950593;28;20055;-86
2021/08/06 04:51:00;;;;;;;2.95;2.03;;;12.60;99.90;;;;;;4947365;29;20047;-85
2021/08/06 04:53:28;;;;;;;1.70;1.60;;;12.70;99.90;;;;;;4933815;29;20047;-86
2021/08/06 04:55:56;;;;;;;1.63;1.42;;;12.70;99.90;;;;;;4931447;29;20047;-86
2021/08/06 04:58:24;;;;;;;3.45;1.60;;;12.80;99.90;;;;;;4948425;29;20055;-85
2021/08/06 05:00:52;;;;;;;2.75;1.45;;;12.90;99.90;;;;;;4931938;28;20048;-85
2021/08/06 05:03:22;;;;;;;2.88;2.10;;;13.00;99.90;;;;;;4933009;29;20410;-86
2021/08/06 05:05:54;;;;;;;6.78;1.42;;;13.00;99.90;;;;;;4936271;29;20050;-85
2021/08/06 05:08:22;;;;;;;3.72;2.30;;;13.10;99.90;;;;;;4936309;28;20043;-85
2021/08/06 05:10:51;;;;;;;2.40;1.88;;;13.20;99.90;;;;;;4952747;28;20409;-85
2021/08/06 05:13:19;;;;;;;2.95;2.08;;;13.30;99.90;;;;;;4939419;29;20440;-86
2021/08/06 05:15:47;;;;;;;1.58;1.45;;;13.30;99.90;;;;;;4923411;29;20036;-86
2021/08/06 05:18:15;;;;;;;2.00;1.60;;;13.40;99.90;;;;;;4941137;28;20054;-86
2021/08/06 05:20:43;;;;;;;1.30;1.20;;;13.50;99.90;;;;;;4957537;28;20051;-86
2021/08/06 05:23:12;;;;;;;2.85;1.55;;;13.60;99.90;;;;;;4942557;28;20079;-85
2021/08/06 05:25:41;;;;;;;1.40;1.23;;;13.60;99.90;;;;;;4973890;28;20061;-85
2021/08/06 05:28:11;;;;;;;2.05;1.88;;;13.70;99.90;;;;;;4973459;28;20051;-85
2021/08/06 05:30:39;;;;;;;2.83;1.50;;;13.80;99.90;;;;;;4975618;28;20051;-85
2021/08/06 05:33:08;;;;;;;1.38;1.20;;;13.80;99.90;;;;;;4945337;28;20048;-86
2021/08/06 05:35:38;;;;;;;1.73;1.63;;;13.80;99.90;;;;;;4919354;29;20494;-86
2021/08/06 05:38:06;;;;;;;1.65;1.13;;;13.90;99.90;;;;;;4919777;29;20078;-85
2021/08/06 05:40:35;;;;;;;4.72;2.50;;;14.10;99.90;;;;;;4917640;28;20079;-85
2021/08/06 05:43:07;;;;;;;1.77;1.20;;;14.20;99.90;;;;;;4934409;29;20051;-85
2021/08/06 05:45:35;;;;;;;1.35;1.25;;;14.40;99.90;;;;;;4920087;29;20490;-86
2021/08/06 05:48:03;;;;;;;1.60;1.50;;;14.40;99.90;;;;;;4951216;28;20509;-85
2021/08/06 05:50:39;;;;;;;1.52;1.33;;;14.40;99.90;;;;;;4935480;29;20059;-85
2021/08/06 05:53:09;;;;;;;1.42;1.33;;;14.40;99.90;;;;;;4918697;29;20449;-85
2021/08/06 05:55:40;;;;;;;1.80;1.70;;;14.30;99.90;;;;;;4918583;29;20067;-85
2021/08/06 05:58:10;;;;;;;1.58;1.30;;;14.30;99.90;;;;;;4935868;29;20406;-85
2021/08/06 06:00:38;;;;;;;11.70;1.90;;;14.20;99.90;;;;;;4950658;28;20050;-85
2021/08/06 06:03:18;;;;;;;1.80;1.58;;;14.30;99.90;;;;;;4934950;29;20047;-86
2021/08/06 06:06:04;;;;;;;3.03;2.83;;;14.30;99.90;;;;;;4951529;29;20043;-85
2021/08/06 06:08:41;;;;;;;1.30;1.20;;;14.30;99.90;;;;;;4935005;28;20044;-85
2021/08/06 06:11:09;;;;;;;2.95;2.03;;;14.30;99.90;;;;;;4949588;28;20040;-85
2021/08/06 06:13:38;;;;;;;1.92;1.40;;;14.30;99.90;;;;;;4935302;29;20051;-85
2021/08/06 06:16:06;;;;;;;1.48;1.35;;;14.30;99.90;;;;;;4934531;28;20055;-86
2021/08/06 06:18:34;;;;;;;1.50;1.10;;;14.50;99.90;;;;;;4973715;28;20400;-85
2021/08/06 06:21:02;;;;;;;1.85;1.20;;;14.50;99.90;;;;;;4941247;28;20059;-86
2021/08/06 06:23:30;;;;;;;2.67;1.02;;;14.60;99.90;;;;;;4956792;28;20039;-86
2021/08/06 06:25:59;;;;;;;1.60;1.17;;;14.70;99.90;;;;;;4941284;28;20058;-87
2021/08/06 06:28:28;;;;;;;1.40;1.30;;;14.80;99.90;;;;;;4956077;28;20062;-86
2021/08/06 06:30:58;;;;;;;1.25;1.15;;;14.80;99.90;;;;;;4956237;28;20046;-85
2021/08/06 06:33:26;;;;;;;2.13;1.95;;;14.90;99.90;;;;;;4973516;28;20058;-90
2021/08/06 06:35:55;;;;;;;1.92;1.77;;;14.90;99.90;;;;;;4956165;28;20045;-89
2021/08/06 06:38:23;;;;;;;2.70;1.40;;;15.00;99.90;;;;;;4942015;28;20062;-90
2021/08/06 06:40:51;;;;;;;1.30;1.20;;;15.20;99.90;;;;;;4938028;28;20051;-90
2021/08/06 06:43:27;;;;;;;1.42;1.33;;;15.30;99.90;;;;;;4953953;28;20393;-89
2021/08/06 06:45:57;;;;;;;1.33;1.20;;;15.40;99.90;;;;;;4954005;29;20043;-89
2021/08/06 06:48:26;;;;;;;2.15;1.40;;;15.50;99.90;;;;;;4921882;29;20051;-90
2021/08/06 06:50:55;;;;;;;1.33;1.15;;;15.50;99.90;;;;;;4934607;29;20046;-90
2021/08/06 06:53:24;;;;;;;1.42;1.30;;;15.70;99.90;;;;;;4903806;29;20052;-90
2021/08/06 06:55:52;;;;;;;1.05;0.82;;;15.90;99.90;;;;;;4917887;29;20055;-90
2021/08/06 06:58:21;;;;;;;1.70;1.50;;;16.20;99.90;;;;;;4919004;29;20044;-89
2021/08/06 07:00:50;;;;;;;2.28;1.60;;;16.40;99.90;;;;;;4918182;29;20528;-89
2021/08/06 07:03:18;;;;;;;1.40;1.17;;;16.30;99.90;;;;;;4918009;29;20043;-90
2021/08/06 07:05:46;;;;;;;1.60;1.13;;;16.30;99.90;;;;;;4918239;29;20056;-89
2021/08/06 07:08:14;;;;;;;2.45;1.20;;;16.30;99.90;;;;;;4917717;29;20409;-90
2021/08/06 07:10:43;;;;;;;2.28;2.08;;;16.20;99.90;;;;;;4933919;28;20051;-86
2021/08/06 07:13:11;;;;;;;2.13;1.92;;;16.30;99.90;;;;;;4953359;29;20047;-89
2021/08/06 07:15:39;;;;;;;2.70;1.48;;;16.30;99.90;;;;;;4952683;28;20039;-89
2021/08/06 07:18:11;;;;;;;1.30;1.20;;;16.40;99.90;;;;;;4953612;28;20377;-89
2021/08/06 07:20:39;;;;;;;15.23;5.25;;;16.40;99.90;;;;;;4970998;28;20047;-89
2021/08/06 07:23:07;;;;;;;2.03;1.60;;;16.40;99.90;;;;;;4955818;28;20055;-88
2021/08/06 07:25:36;;;;;;;3.08;1.30;;;16.50;99.90;;;;;;4940150;28;20451;-88
2021/08/06 07:28:06;;;;;;;2.25;1.63;;;16.50;99.90;;;;;;4955129;28;20046;-88
2021/08/06 07:30:36;;;;;;;1.75;1.63;;;16.60;99.90;;;;;;4940323;28;20511;-88
2021/08/06 07:33:05;;;;;;;1.60;1.10;;;16.70;99.90;;;;;;4962066;28;20047;-89
2021/08/06 07:35:33;;;;;;;8.13;1.50;;;16.60;99.90;;;;;;4949029;28;20043;-90
2021/08/06 07:38:01;;;;;;;3.13;1.23;;;16.60;99.90;;;;;;4949359;29;20047;-89
2021/08/06 07:40:30;;;;;;;1.27;1.17;;;16.60;99.90;;;;;;4933099;28;20603;-90
2021/08/06 07:42:58;;;;;;;1.33;1.23;;;16.60;99.90;;;;;;4952640;28;20408;-89
2021/08/06 07:45:26;;;;;;;1.73;1.63;;;16.60;99.90;;;;;;4953006;29;20058;-87
2021/08/06 07:47:58;;;;;;;1.88;1.30;;;16.50;99.90;;;;;;4935452;28;20047;-87
2021/08/06 07:50:26;;;;;;;1.42;1.33;;;16.30;99.90;;;;;;4951731;29;20043;-89
2021/08/06 07:52:55;;;;;;;1.77;1.23;;;16.10;99.90;;;;;;4936086;29;20054;-86
2021/08/06 07:55:25;;;;;;;1.35;1.25;;;15.60;99.90;;;;;;4951214;28;20610;-89
2021/08/06 07:57:53;;;;;;;1.58;1.48;;;15.30;99.90;;;;;;4953207;29;20715;-89
2021/08/06 08:00:22;;;;;;;1.65;1.55;;;15.10;99.90;;;;;;4936196;28;20412;-87
2021/08/06 08:02:50;;;;;;;2.55;1.85;;;15.00;99.90;;;;;;4951885;28;20047;-87
2021/08/06 08:05:24;;;;;;;1.92;1.42;;;14.90;99.90;;;;;;4936361;29;20507;-87
2021/08/06 08:08:03;;;;;;;1.30;1.20;;;14.80;99.90;;;;;;4936031;28;20055;-88
2021/08/06 08:10:33;;;;;;;1.55;1.45;;;14.80;99.90;;;;;;4935814;29;20043;-87
2021/08/06 08:13:22;;;;;;;2.55;1.60;;;14.80;99.90;;;;;;4915831;29;20048;-88
2021/08/06 08:15:54;;;;;;;6.28;2.35;;;14.80;99.90;;;;;;4917017;29;20047;-89
2021/08/06 08:18:27;;;;;;;7.55;1.50;;;14.90;99.90;;;;;;4971345;28;20062;-89
2021/08/06 08:20:55;;;;;;;1.63;1.52;;;14.90;99.90;;;;;;4952641;28;20054;-89
2021/08/06 08:23:23;;;;;;;1.60;1.30;;;15.10;99.90;;;;;;4919772;29;20047;-90
2021/08/06 08:25:54;;;;;;;2.92;1.90;;;15.10;99.90;;;;;;4920172;29;20067;-89
2021/08/06 08:28:26;;;;;;;2.88;1.83;;;15.20;99.90;;;;;;4935913;28;20051;-89
2021/08/06 08:30:55;;;;;;;4.30;2.17;;;15.30;99.90;;;;;;4952630;28;20039;-89
2021/08/06 08:33:24;;;;;;;2.53;2.20;;;15.40;99.90;;;;;;4953181;29;20048;-90
2021/08/06 08:35:53;;;;;;;3.63;1.98;;;15.50;99.90;;;;;;4952653;29;20043;-90
2021/08/06 08:38:21;;;;;;;2.60;2.28;;;15.50;99.90;;;;;;4937586;29;20484;-90
2021/08/06 08:40:50;;;;;;;4.30;2.58;;;15.50;99.90;;;;;;4951428;28;20409;-89
2021/08/06 08:43:18;;;;;;;2.35;1.80;;;15.50;99.90;;;;;;4933149;29;20429;-91
2021/08/06 08:45:47;;;;;;;1.42;1.35;;;15.60;99.90;;;;;;4934289;29;20378;-91
2021/08/06 08:48:18;;;;;;;3.60;1.70;;;15.60;99.90;;;;;;4932412;28;20497;-89
2021/08/06 08:50:48;;;;;;;1.75;1.52;;;15.60;99.90;;;;;;4931693;28;20048;-88
2021/08/06 08:53:16;;;;;;;3.30;1.73;;;15.60;99.90;;;;;;4917574;29;20050;-91
2021/08/06 08:55:45;;;;;;;1.88;1.63;;;15.70;99.90;;;;;;4916711;29;20050;-89
2021/08/06 08:58:14;;;;;;;1.83;1.73;;;15.80;99.90;;;;;;4932890;29;20047;-88
2021/08/06 09:00:42;;;;;;;1.70;1.60;;;15.90;99.90;;;;;;4932904;28;20047;-92
2021/08/06 09:03:45;;;;;;;3.47;1.70;;;16.00;99.90;;;;;;4916406;29;20524;-90
2021/08/06 09:06:41;;;;;;;1.95;1.80;;;16.10;99.90;;;;;;4933448;29;20063;-89
2021/08/06 09:09:26;;;;;;;2.25;2.05;;;16.50;99.90;;;;;;4931872;29;20054;-90
2021/08/06 09:12:15;;;;;;;1.52;1.30;;;16.60;99.90;;;;;;4932387;29;20043;-88
2021/08/06 09:14:52;;;;;;;6.90;2.08;;;16.80;99.90;;;;;;4936811;28;20055;-92
2021/08/06 09:17:20;;;;;;;4.82;2.25;;;17.10;99.90;;;;;;4933598;29;20048;-92
2021/08/06 09:19:58;;;;;;;2.45;1.23;;;17.20;99.90;;;;;;4933545;28;20501;-90
2021/08/06 09:22:38;;;;;;;6.88;1.85;;;17.10;99.90;;;;;;4936351;29;20056;-89
2021/08/06 09:25:16;;;;;;;2.03;1.40;;;17.10;99.90;;;;;;4935320;28;20040;-90
2021/08/06 09:28:02;;;;;;;2.28;1.50;;;17.20;99.90;;;;;;4916593;29;20528;-88
2021/08/06 09:30:34;;;;;;;1.58;1.48;;;17.20;99.90;;;;;;4933320;29;20048;-90
2021/08/06 09:33:04;;;;;;;2.30;1.70;;;17.30;99.90;;;;;;4927479;28;20040;-89
2021/08/06 09:35:34;;;;;;;5.35;1.55;;;17.40;99.90;;;;;;4913939;29;20054;-91
2021/08/06 09:38:04;;;;;;;2.58;2.38;;;17.40;99.90;;;;;;4913262;29;20048;-90
2021/08/06 09:40:39;;;;;;;1.52;1.05;;;17.60;99.90;;;;;;4913555;28;20406;-89
2021/08/06 09:43:15;;;;;;;1.20;1.10;;;17.50;99.90;;;;;;4931005;29;20401;-88
2021/08/06 09:45:43;;;;;;;1.33;1.20;;;17.40;99.90;;;;;;4917464;29;20051;-90
2021/08/06 09:48:13;;;;;;;1.55;1.45;;;17.60;99.90;;;;;;4932331;28;20503;-89
2021/08/06 09:50:44;;;;;;;1.15;0.98;;;17.90;99.90;;;;;;4917866;29;20051;-89
2021/08/06 09:53:12;;;;;;;1.33;1.23;;;18.10;99.90;;;;;;4938240;29;20058;-90
2021/08/06 09:55:46;;;;;;;1.70;1.25;;;18.20;99.90;;;;;;4955051;28;20050;-88
2021/08/06 09:58:22;;;;;;;1.90;1.65;;;18.30;99.90;;;;;;4956926;29;20508;-92
2021/08/06 10:00:52;;;;;;;1.50;1.15;;;18.20;99.90;;;;;;4955217;28;20043;-90
2021/08/06 10:03:32;;;;;;;1.48;1.38;;;18.20;99.90;;;;;;4939807;29;20047;-91
2021/08/06 10:06:11;;;;;;;3.15;1.52;;;18.20;99.90;;;;;;4954968;29;20050;-90
2021/08/06 10:08:40;;;;;;;2.40;1.20;;;18.50;99.90;;;;;;4956599;28;20055;-88
2021/08/06 10:11:09;;;;;;;3.15;2.10;;;18.70;99.90;;;;;;4949497;29;20054;-89
2021/08/06 10:13:37;;;;;;;1.50;1.20;;;18.70;99.90;;;;;;4936778;29;20043;-92
2021/08/06 10:16:06;;;;;;;2.15;1.10;;;18.60;99.90;;;;;;4935420;28;20052;-92
2021/08/06 10:18:34;;;;;;;1.48;1.20;;;18.50;99.90;;;;;;4974429;28;20051;-92
2021/08/06 10:21:02;;;;;;;1.23;1.10;;;18.30;99.90;;;;;;4957450;28;20043;-90
2021/08/06 10:23:30;;;;;;;1.15;1.05;;;18.30;99.90;;;;;;4975005;28;20047;-88
2021/08/06 10:25:59;;;;;;;1.58;1.48;;;18.70;99.90;;;;;;4973468;28;20054;-89
2021/08/06 10:28:31;;;;;;;1.17;1.08;;;18.90;99.90;;;;;;4974963;28;20047;-90
2021/08/06 10:31:18;;;;;;;1.23;1.13;;;19.00;99.90;;;;;;4975017;28;20502;-89
2021/08/06 10:34:12;;;;;;;4.38;1.27;;;19.30;99.90;;;;;;4973958;28;20043;-92
2021/08/06 10:36:50;;;;;;;1.15;1.05;;;18.90;99.90;;;;;;4973561;28;20050;-91
2021/08/06 10:39:30;;;;;;;1.42;1.23;;;18.50;99.90;;;;;;4973384;28;20050;-88
2021/08/06 10:42:04;;;;;;;1.48;1.38;;;18.30;99.90;;;;;;4946117;28;20059;-87
2021/08/06 10:44:49;;;;;;;1.48;1.30;;;18.20;99.90;;;;;;4938366;29;20504;-88
2021/08/06 10:47:17;;;;;;;1.50;1.20;;;18.20;99.90;;;;;;4953748;28;20070;-89
2021/08/06 10:50:16;;;;;;;2.63;1.65;;;18.10;99.90;;;;;;4946250;29;20389;-89
2021/08/06 10:53:15;;;;;;;3.08;1.30;;;18.00;99.90;;;;;;4935714;29;20051;-90
2021/08/06 10:55:43;;;;;;;1.30;1.13;;;18.00;99.90;;;;;;4933724;29;20051;-88
2021/08/06 10:58:52;;;;;;;1.05;1.02;;;17.90;99.90;;;;;;4936178;29;20058;-88
2021/08/06 11:01:40;;;;;;;1.42;1.23;;;17.80;99.90;;;;;;4947547;28;20437;-88
2021/08/06 11:04:11;;;;;;;1.20;1.10;;;17.60;99.90;;;;;;4935365;29;20058;-88
2021/08/06 11:06:45;;;;;;;1.45;1.35;;;17.60;99.90;;;;;;4935515;29;20075;-89
2021/08/06 11:09:29;;;;;;;6.53;1.50;;;17.90;99.90;;;;;;4934867;29;20044;-88
2021/08/06 11:12:07;;;;;;;1.17;1.10;;;18.10;99.90;;;;;;4944780;28;20047;-89
2021/08/06 11:14:35;;;;;;;3.85;1.70;;;18.40;99.90;;;;;;4953624;29;20054;-89
2021/08/06 11:17:07;;;;;;;4.75;1.70;;;18.60;99.90;;;;;;4960990;28;20039;-90
2021/08/06 11:19:36;;;;;;;1.50;1.40;;;18.80;99.90;;;;;;4973227;28;20042;-87
2021/08/06 11:22:07;;;;;;;19.77;3.58;;;19.00;99.90;;;;;;4955734;28;20483;-88
2021/08/06 11:24:47;;;;;;;1.55;1.13;;;19.20;99.90;;;;;;4956182;28;20035;-89
2021/08/06 11:27:17;;;;;;;3.05;1.50;;;19.50;99.90;;;;;;4972229;28;20046;-88
2021/08/06 11:30:08;;;;;;;3.53;1.37;;;19.50;99.90;;;;;;4955893;28;20430;-89
2021/08/06 11:33:00;;;;;;;1.80;1.43;;;19.30;99.90;;;;;;4952991;28;20043;-81
2021/08/06 11:35:33;;;;;;;1.17;1.02;;;19.00;99.90;;;;;;4951586;28;20069;-80
2021/08/06 11:38:02;;;;;;;2.00;1.30;;;19.30;99.90;;;;;;4953631;29;20074;-81
2021/08/06 11:40:42;;;;;;;1.65;1.50;;;19.60;99.90;;;;;;4952303;28;20299;-79
2021/08/06 11:43:16;;;;;;;1.15;1.05;;;19.90;99.90;;;;;;4952901;28;20055;-80
2021/08/06 11:45:46;;;;;;;5.15;1.30;;;20.00;99.90;;;;;;4953983;29;20051;-80
2021/08/06 11:48:14;;;;;;;1.40;1.30;;;20.20;99.90;;;;;;4953288;28;20058;-80
2021/08/06 11:50:44;;;;;;;1.40;1.20;;;20.30;99.90;;;;;;4953051;29;20054;-80
2021/08/06 11:53:20;;;;;;;3.60;1.15;;;20.40;99.90;;;;;;4966973;28;20055;-79
2021/08/06 11:55:49;;;;;;;1.17;0.95;;;20.60;99.90;;;;;;4951170;28;20043;-82
2021/08/06 11:58:37;;;;;;;1.10;1.00;;;20.60;99.90;;;;;;4953711;29;20054;-79
2021/08/06 12:01:23;;;;;;;1.20;1.10;;;20.60;99.90;;;;;;4953094;28;20496;-80
2021/08/06 12:03:54;;;;;;;1.63;1.52;;;20.50;99.90;;;;;;4951794;28;20047;-81
2021/08/06 12:06:23;;;;;;;1.95;1.80;;;20.50;99.90;;;;;;4953260;29;20066;-81
2021/08/06 12:08:53;;;;;;;1.10;1.00;;;20.50;99.90;;;;;;4953194;28;20055;-80
2021/08/06 12:11:23;;;;;;;2.28;1.13;;;20.40;99.90;;;;;;4947451;28;20539;-78
2021/08/06 12:13:52;;;;;;;0.70;0.70;;;20.60;99.90;;;;;;4934083;29;20062;-79
2021/08/06 12:16:26;;;;;;;1.40;1.30;;;20.70;99.90;;;;;;4937850;28;20054;-81
2021/08/06 12:18:55;;;;;;;1.27;1.17;;;20.80;99.90;;;;;;4972068;28;20051;-79
2021/08/06 12:21:31;;;;;;;9.30;1.60;;;20.70;99.90;;;;;;4972114;28;20476;-79
2021/08/06 12:24:08;;;;;;;1.30;1.20;;;20.90;99.90;;;;;;4954906;28;20070;-80
2021/08/06 12:26:36;;;;;;;1.00;0.93;;;21.30;99.90;;;;;;4971623;28;20039;-80
2021/08/06 12:29:32;;;;;;;0.77;0.73;;;21.50;99.90;;;;;;4971814;28;20065;-80
2021/08/06 12:32:09;;;;;;;0.98;0.98;;;21.30;99.90;;;;;;4970699;28;20047;-79
2021/08/06 12:34:43;;;;;;;2.42;1.05;;;21.10;99.90;;;;;;4972265;28;20504;-80
2021/08/06 12:37:15;;;;;;;2.08;1.33;;;21.20;99.90;;;;;;4971122;28;20047;-79
2021/08/06 12:39:46;;;;;;;1.35;1.27;;;21.50;99.90;;;;;;4954923;28;20042;-80
2021/08/06 12:42:25;;;;;;;1.65;1.13;;;21.60;99.90;;;;;;4958201;28;20051;-80
2021/08/06 12:45:03;;;;;;;1.65;0.95;;;21.70;99.90;;;;;;4952479;28;20063;-80
2021/08/06 12:47:42;;;;;;;1.42;0.88;;;21.80;99.90;;;;;;4952403;28;20047;-80
2021/08/06 12:50:16;;;;;;;1.52;1.20;;;21.70;99.90;;;;;;4940531;29;20067;-79
2021/08/06 12:52:45;;;;;;;3.95;2.35;;;21.60;99.90;;;;;;4933211;29;20048;-79
2021/08/06 12:55:17;;;;;;;1.52;1.23;;;21.50;99.90;;;;;;4933135;29;20047;-88
2021/08/06 12:57:54;;;;;;;5.85;1.13;;;21.40;99.90;;;;;;4932913;29;20078;-88
2021/08/06 13:00:28;;;;;;;1.20;1.10;;;21.40;99.90;;;;;;4932861;28;20047;-88
2021/08/06 13:03:11;;;;;;;2.08;1.40;;;21.30;99.90;;;;;;4933000;29;20043;-79
2021/08/06 13:05:46;;;;;;;4.07;1.20;;;21.60;99.90;;;;;;4933300;29;20060;-80
2021/08/06 13:08:22;;;;;;;0.98;0.88;;;21.80;99.90;;;;;;4933307;28;20047;-80
2021/08/06 13:10:51;;;;;;;1.00;0.98;;;21.60;99.90;;;;;;4933988;28;20067;-79
2021/08/06 13:13:26;;;;;;;2.53;1.10;;;21.40;99.90;;;;;;4952830;29;20058;-80